Terminal Aerodrome Forecast
Issued by NWS

Home | Current Version | Previous Version | Text Only | Print | Product List | Glossary On
Versions: 1 2 3 4 5 6 7 8 9 10 11 12 13 14 15 16 17 18 19 20
000
FTUS43 KDLH 151700 RRA
TAFHIB
TAF
KHIB 151740Z 1518/1618 VRB04KT P6SM SCT300
     FM160200 10006KT P6SM SCT090 OVC200
     FM160800 09014KT P6SM SCT050 BKN110 OVC160
     FM161400 08015G22KT P6SM SCT022 OVC050=

USA.gov is the U.S. government's official web portal to all federal, state and local government web resources and services.